PWSweather.com
Personal Weather Stations
Station Observations

Acton, CA 93510

Lat: 34.47703, Lon: -118.17483

Elevation: 2900

Station Type: Davis Vantage Pro 2

http://www.actonastro.com/weather/current.php

Latest ConditionsUpdated 11:10:54 AM PDT Saturday, Aug 30, 2014
Currently Today's Max Today's Min Today's Average
Temperature 92.5°F33.6°C 92.9°F33.8°C 61.6°F16.4°C 70.3°F21.3°C
Dew Point 28.0°F-2.2°C 39.1°F3.9°C 23.2°F-4.9°C 29.6°F-1.3°C
Winds 6.0 mph WSW9.7 kmh WSW 7.0 mph W11.3 kmh W - 1.2 mph 1.9 kmh
Wind Gusts 11.0 mph17.7 kmh 11.0 mph17.7 kmh - -
Humidity 10% 36% 9% 23%
Pressure 29.64 in1003.7 mb 29.68 in1005.1 mb 29.63 in1003.4 mb -
Hour Temp Dew Point Humidity Winds Wind Gusts Pressure Precip Precip Rate Daily Precip Total
11:10 AM 92.5°F33.6°C 28.0°F-2.2°C 10% 6.0 mph WSW9.7 kmh WSW 11.0 mph17.7 kmh 29.64 in1003.7 mb 0.00 in0.0 mm 0.00 in/hr0.0 mm/hr 0.00 in0.0 mm
11:05 AM 92.7°F33.7°C 28.1°F-2.2°C 10% 1.0 mph W1.6 kmh W 11.0 mph17.7 kmh 29.64 in1003.7 mb 0.00 in0.0 mm 0.00 in/hr0.0 mm/hr 0.00 in0.0 mm
11:00 AM 92.9°F33.8°C 28.3°F-2.1°C 10% 6.0 mph SSW9.7 kmh SSW 11.0 mph17.7 kmh 29.64 in1003.7 mb 0.00 in0.0 mm 0.00 in/hr0.0 mm/hr 0.00 in0.0 mm
10:55 AM 92.7°F33.7°C 25.6°F-3.6°C 9% 6.0 mph W9.7 kmh W 10.0 mph16.1 kmh 29.64 in1003.7 mb 0.00 in0.0 mm 0.00 in/hr0.0 mm/hr 0.00 in0.0 mm
10:50 AM 92.3°F33.5°C 25.3°F-3.7°C 9% 1.0 mph NW1.6 kmh NW 10.0 mph16.1 kmh 29.64 in1003.7 mb 0.00 in0.0 mm 0.00 in/hr0.0 mm/hr 0.00 in0.0 mm
10:45 AM 92.3°F33.5°C 30.2°F-1.0°C 11% 2.0 mph W3.2 kmh W 10.0 mph16.1 kmh 29.64 in1003.7 mb 0.00 in0.0 mm 0.00 in/hr0.0 mm/hr 0.00 in0.0 mm
10:40 AM 92.3°F33.5°C 30.2°F-1.0°C 11% 5.0 mph SSW8.0 kmh SSW 7.0 mph11.3 kmh 29.64 in1003.7 mb 0.00 in0.0 mm 0.00 in/hr0.0 mm/hr 0.00 in0.0 mm
10:35 AM 91.6°F33.1°C 29.6°F-1.3°C 11% 2.0 mph WSW3.2 kmh WSW 7.0 mph11.3 kmh 29.64 in1003.7 mb 0.00 in0.0 mm 0.00 in/hr0.0 mm/hr 0.00 in0.0 mm
10:30 AM 91.0°F32.8°C 24.3°F-4.3°C 9% 7.0 mph W11.3 kmh W 7.0 mph11.3 kmh 29.64 in1003.7 mb 0.00 in0.0 mm 0.00 in/hr0.0 mm/hr 0.00 in0.0 mm
10:25 AM 90.5°F32.5°C 24.0°F-4.4°C 9% 1.0 mph SW1.6 kmh SW 5.0 mph8.0 kmh 29.64 in1003.7 mb 0.00 in0.0 mm 0.00 in/hr0.0 mm/hr 0.00 in0.0 mm
10:20 AM 90.5°F32.5°C 26.5°F-3.1°C 10% Calm Calm 5.0 mph8.0 kmh 29.64 in1003.7 mb 0.00 in0.0 mm 0.00 in/hr0.0 mm/hr 0.00 in0.0 mm
10:15 AM 90.1°F32.3°C 26.2°F-3.2°C 10% 1.0 mph WSW1.6 kmh WSW 5.0 mph8.0 kmh 29.64 in1003.7 mb 0.00 in0.0 mm 0.00 in/hr0.0 mm/hr 0.00 in0.0 mm
10:10 AM 89.9°F32.2°C 23.5°F-4.7°C 9% 4.0 mph NW6.4 kmh NW 5.0 mph8.0 kmh 29.64 in1003.7 mb 0.00 in0.0 mm 0.00 in/hr0.0 mm/hr 0.00 in0.0 mm
10:05 AM 89.5°F31.9°C 23.2°F-4.9°C 9% Calm Calm 5.0 mph8.0 kmh 29.64 in1003.7 mb 0.00 in0.0 mm 0.00 in/hr0.0 mm/hr 0.00 in0.0 mm
10:00 AM 88.8°F31.6°C 25.2°F-3.8°C 10% 2.0 mph WNW3.2 kmh WNW 5.0 mph8.0 kmh 29.64 in1003.7 mb 0.00 in0.0 mm 0.00 in/hr0.0 mm/hr 0.00 in0.0 mm
09:55 AM 88.4°F31.3°C 24.9°F-3.9°C 10% 2.0 mph W3.2 kmh W 5.0 mph8.0 kmh 29.64 in1003.7 mb 0.00 in0.0 mm 0.00 in/hr0.0 mm/hr 0.00 in0.0 mm
09:50 AM 88.0°F31.1°C 24.6°F-4.1°C 10% 3.0 mph SW4.8 kmh SW 5.0 mph8.0 kmh 29.64 in1003.7 mb 0.00 in0.0 mm 0.00 in/hr0.0 mm/hr 0.00 in0.0 mm
09:45 AM 87.4°F30.8°C 24.1°F-4.4°C 10% 3.0 mph WNW4.8 kmh WNW 5.0 mph8.0 kmh 29.64 in1003.7 mb 0.00 in0.0 mm 0.00 in/hr0.0 mm/hr 0.00 in0.0 mm
09:40 AM 87.0°F30.6°C 26.1°F-3.3°C 11% 1.0 mph SW1.6 kmh SW 5.0 mph8.0 kmh 29.64 in1003.7 mb 0.00 in0.0 mm 0.00 in/hr0.0 mm/hr 0.00 in0.0 mm
09:35 AM 86.3°F30.2°C 25.6°F-3.6°C 11% 1.0 mph SW1.6 kmh SW 5.0 mph8.0 kmh 29.64 in1003.7 mb 0.00 in0.0 mm 0.00 in/hr0.0 mm/hr 0.00 in0.0 mm
09:30 AM 85.9°F29.9°C 25.3°F-3.7°C 11% Calm Calm 4.0 mph6.4 kmh 29.64 in1003.7 mb 0.00 in0.0 mm 0.00 in/hr0.0 mm/hr 0.00 in0.0 mm
09:25 AM 85.9°F29.9°C 29.3°F-1.5°C 13% 3.0 mph SE4.8 kmh SE 4.0 mph6.4 kmh 29.65 in1004.1 mb 0.00 in0.0 mm 0.00 in/hr0.0 mm/hr 0.00 in0.0 mm
09:20 AM 85.3°F29.6°C 32.4°F0.2°C 15% Calm Calm 4.0 mph6.4 kmh 29.65 in1004.1 mb 0.00 in0.0 mm 0.00 in/hr0.0 mm/hr 0.00 in0.0 mm
09:15 AM 84.7°F29.3°C 30.2°F-1.0°C 14% 1.0 mph S1.6 kmh S 4.0 mph6.4 kmh 29.65 in1004.1 mb 0.00 in0.0 mm 0.00 in/hr0.0 mm/hr 0.00 in0.0 mm
09:10 AM 84.0°F28.9°C 31.4°F-0.3°C 15% 2.0 mph ESE3.2 kmh ESE 2.0 mph3.2 kmh 29.64 in1003.7 mb 0.00 in0.0 mm 0.00 in/hr0.0 mm/hr 0.00 in0.0 mm
09:05 AM 82.8°F28.2°C 30.4°F-0.9°C 15% Calm Calm 1.0 mph1.6 kmh 29.64 in1003.7 mb 0.00 in0.0 mm 0.00 in/hr0.0 mm/hr 0.00 in0.0 mm
09:00 AM 81.4°F27.4°C 30.9°F-0.6°C 16% Calm Calm 2.0 mph3.2 kmh 29.64 in1003.7 mb 0.00 in0.0 mm 0.00 in/hr0.0 mm/hr 0.00 in0.0 mm
08:55 AM 80.1°F26.7°C 32.8°F0.4°C 18% Calm Calm 2.0 mph3.2 kmh 29.66 in1004.4 mb 0.00 in0.0 mm 0.00 in/hr0.0 mm/hr 0.00 in0.0 mm
08:50 AM 79.0°F26.1°C 31.9°F-0.1°C 18% 1.0 mph ESE1.6 kmh ESE 2.0 mph3.2 kmh 29.66 in1004.4 mb 0.00 in0.0 mm 0.00 in/hr0.0 mm/hr 0.00 in0.0 mm
08:45 AM 77.6°F25.3°C 32.1°F0.1°C 19% 1.0 mph ESE1.6 kmh ESE 2.0 mph3.2 kmh 29.66 in1004.4 mb 0.00 in0.0 mm 0.00 in/hr0.0 mm/hr 0.00 in0.0 mm
08:40 AM 76.0°F24.4°C 32.0°F0.0°C 20% 1.0 mph ESE1.6 kmh ESE 2.0 mph3.2 kmh 29.66 in1004.4 mb 0.00 in0.0 mm 0.00 in/hr0.0 mm/hr 0.00 in0.0 mm
08:35 AM 74.2°F23.4°C 31.7°F-0.2°C 21% 2.0 mph ESE3.2 kmh ESE 2.0 mph3.2 kmh 29.66 in1004.4 mb 0.00 in0.0 mm 0.00 in/hr0.0 mm/hr 0.00 in0.0 mm
08:30 AM 72.7°F22.6°C 29.3°F-1.5°C 20% 1.0 mph ENE1.6 kmh ENE 2.0 mph3.2 kmh 29.66 in1004.4 mb 0.00 in0.0 mm 0.00 in/hr0.0 mm/hr 0.00 in0.0 mm
08:25 AM 71.1°F21.7°C 30.3°F-0.9°C 22% 1.0 mph NE1.6 kmh NE 1.0 mph1.6 kmh 29.67 in1004.7 mb 0.00 in0.0 mm 0.00 in/hr0.0 mm/hr 0.00 in0.0 mm
08:20 AM 70.3°F21.3°C 30.7°F-0.7°C 23% Calm Calm -- 29.67 in1004.7 mb 0.00 in0.0 mm 0.00 in/hr0.0 mm/hr 0.00 in0.0 mm
08:15 AM 69.8°F21.0°C 30.3°F-0.9°C 23% Calm Calm -- 29.67 in1004.7 mb 0.00 in0.0 mm 0.00 in/hr0.0 mm/hr 0.00 in0.0 mm
08:10 AM 69.6°F20.9°C 31.2°F-0.4°C 24% Calm Calm -- 29.67 in1004.7 mb 0.00 in0.0 mm 0.00 in/hr0.0 mm/hr 0.00 in0.0 mm
08:05 AM 69.3°F20.7°C 28.8°F-1.8°C 22% Calm Calm -- 29.67 in1004.7 mb 0.00 in0.0 mm 0.00 in/hr0.0 mm/hr 0.00 in0.0 mm
08:00 AM 69.1°F20.6°C 28.7°F-1.8°C 22% Calm Calm -- 29.67 in1004.7 mb 0.00 in0.0 mm 0.00 in/hr0.0 mm/hr 0.00 in0.0 mm
07:55 AM 68.8°F20.4°C 28.4°F-2.0°C 22% Calm Calm -- 29.67 in1004.7 mb 0.00 in0.0 mm 0.00 in/hr0.0 mm/hr 0.00 in0.0 mm
07:50 AM 68.3°F20.2°C 28.0°F-2.2°C 22% Calm Calm 3.0 mph4.8 kmh 29.67 in1004.7 mb 0.00 in0.0 mm 0.00 in/hr0.0 mm/hr 0.00 in0.0 mm
07:45 AM 67.8°F19.9°C 27.6°F-2.4°C 22% Calm Calm 3.0 mph4.8 kmh 29.67 in1004.7 mb 0.00 in0.0 mm 0.00 in/hr0.0 mm/hr 0.00 in0.0 mm
07:40 AM 66.6°F19.2°C 28.7°F-1.8°C 24% 2.0 mph ENE3.2 kmh ENE 3.0 mph4.8 kmh 29.68 in1005.1 mb 0.00 in0.0 mm 0.00 in/hr0.0 mm/hr 0.00 in0.0 mm
07:35 AM 65.3°F18.5°C 26.6°F-3.0°C 23% 1.0 mph ENE1.6 kmh ENE 2.0 mph3.2 kmh 29.68 in1005.1 mb 0.00 in0.0 mm 0.00 in/hr0.0 mm/hr 0.00 in0.0 mm
07:30 AM 65.2°F18.4°C 27.5°F-2.5°C 24% 1.0 mph ENE1.6 kmh ENE 2.0 mph3.2 kmh 29.68 in1005.1 mb 0.00 in0.0 mm 0.00 in/hr0.0 mm/hr 0.00 in0.0 mm
07:25 AM 65.2°F18.4°C 27.5°F-2.5°C 24% Calm Calm -- 29.68 in1005.1 mb 0.00 in0.0 mm 0.00 in/hr0.0 mm/hr 0.00 in0.0 mm
07:20 AM 65.3°F18.5°C 27.6°F-2.4°C 24% Calm Calm 4.0 mph6.4 kmh 29.68 in1005.1 mb 0.00 in0.0 mm 0.00 in/hr0.0 mm/hr 0.00 in0.0 mm
07:15 AM 65.2°F18.4°C 25.4°F-3.7°C 22% 1.0 mph ENE1.6 kmh ENE 4.0 mph6.4 kmh 29.68 in1005.1 mb 0.00 in0.0 mm 0.00 in/hr0.0 mm/hr 0.00 in0.0 mm
07:10 AM 65.5°F18.6°C 26.7°F-2.9°C 23% 2.0 mph E3.2 kmh E 4.0 mph6.4 kmh 29.67 in1004.7 mb 0.00 in0.0 mm 0.00 in/hr0.0 mm/hr 0.00 in0.0 mm
07:05 AM 65.6°F18.7°C 27.8°F-2.3°C 24% 1.0 mph E1.6 kmh E 5.0 mph8.0 kmh 29.67 in1004.7 mb 0.00 in0.0 mm 0.00 in/hr0.0 mm/hr 0.00 in0.0 mm
07:00 AM 65.0°F18.3°C 27.3°F-2.6°C 24% 3.0 mph NE4.8 kmh NE 5.0 mph8.0 kmh 29.67 in1004.7 mb 0.00 in0.0 mm 0.00 in/hr0.0 mm/hr 0.00 in0.0 mm
06:55 AM 64.0°F17.8°C 26.5°F-3.1°C 24% 2.0 mph NE3.2 kmh NE 5.0 mph8.0 kmh 29.67 in1004.7 mb 0.00 in0.0 mm 0.00 in/hr0.0 mm/hr 0.00 in0.0 mm
06:50 AM 62.6°F17.0°C 27.2°F-2.7°C 26% 3.0 mph E4.8 kmh E 5.0 mph8.0 kmh 29.67 in1004.7 mb 0.00 in0.0 mm 0.00 in/hr0.0 mm/hr 0.00 in0.0 mm
06:45 AM 62.0°F16.7°C 27.6°F-2.4°C 27% 1.0 mph NE1.6 kmh NE 3.0 mph4.8 kmh 29.67 in1004.7 mb 0.00 in0.0 mm 0.00 in/hr0.0 mm/hr 0.00 in0.0 mm
06:40 AM 61.6°F16.4°C 27.3°F-2.6°C 27% 3.0 mph NE4.8 kmh NE 3.0 mph4.8 kmh 29.67 in1004.7 mb 0.00 in0.0 mm 0.00 in/hr0.0 mm/hr 0.00 in0.0 mm
06:35 AM 62.0°F16.7°C 28.5°F-1.9°C 28% 1.0 mph NE1.6 kmh NE 3.0 mph4.8 kmh 29.67 in1004.7 mb 0.00 in0.0 mm 0.00 in/hr0.0 mm/hr 0.00 in0.0 mm
06:30 AM 62.3°F16.8°C 27.0°F-2.8°C 26% 2.0 mph NE3.2 kmh NE 2.0 mph3.2 kmh 29.67 in1004.7 mb 0.00 in0.0 mm 0.00 in/hr0.0 mm/hr 0.00 in0.0 mm
06:25 AM 62.3°F16.8°C 27.0°F-2.8°C 26% Calm Calm 2.0 mph3.2 kmh 29.67 in1004.7 mb 0.00 in0.0 mm 0.00 in/hr0.0 mm/hr 0.00 in0.0 mm
06:20 AM 62.6°F17.0°C 27.2°F-2.7°C 26% Calm Calm -- 29.67 in1004.7 mb 0.00 in0.0 mm 0.00 in/hr0.0 mm/hr 0.00 in0.0 mm
06:15 AM 62.7°F17.1°C 27.3°F-2.6°C 26% Calm Calm 1.0 mph1.6 kmh 29.67 in1004.7 mb 0.00 in0.0 mm 0.00 in/hr0.0 mm/hr 0.00 in0.0 mm
06:10 AM 62.7°F17.1°C 28.2°F-2.1°C 27% Calm Calm 1.0 mph1.6 kmh 29.65 in1004.1 mb 0.00 in0.0 mm 0.00 in/hr0.0 mm/hr 0.00 in0.0 mm
06:05 AM 62.6°F17.0°C 28.2°F-2.1°C 27% 1.0 mph NE1.6 kmh NE 5.0 mph8.0 kmh 29.65 in1004.1 mb 0.00 in0.0 mm 0.00 in/hr0.0 mm/hr 0.00 in0.0 mm
06:00 AM 62.7°F17.1°C 28.2°F-2.1°C 27% 3.0 mph NE4.8 kmh NE 5.0 mph8.0 kmh 29.65 in1004.1 mb 0.00 in0.0 mm 0.00 in/hr0.0 mm/hr 0.00 in0.0 mm
05:55 AM 62.7°F17.1°C 27.3°F-2.6°C 26% 2.0 mph SE3.2 kmh SE 5.0 mph8.0 kmh 29.65 in1004.1 mb 0.00 in0.0 mm 0.00 in/hr0.0 mm/hr 0.00 in0.0 mm
05:50 AM 62.1°F16.7°C 27.7°F-2.4°C 27% 1.0 mph NW1.6 kmh NW 5.0 mph8.0 kmh 29.65 in1004.1 mb 0.00 in0.0 mm 0.00 in/hr0.0 mm/hr 0.00 in0.0 mm
05:45 AM 62.3°F16.8°C 27.9°F-2.3°C 27% Calm Calm 1.0 mph1.6 kmh 29.65 in1004.1 mb 0.00 in0.0 mm 0.00 in/hr0.0 mm/hr 0.00 in0.0 mm
05:40 AM 62.4°F16.9°C 28.0°F-2.2°C 27% 1.0 mph NE1.6 kmh NE 1.0 mph1.6 kmh 29.65 in1004.1 mb 0.00 in0.0 mm 0.00 in/hr0.0 mm/hr 0.00 in0.0 mm
05:35 AM 62.6°F17.0°C 28.2°F-2.1°C 27% Calm Calm -- 29.65 in1004.1 mb 0.00 in0.0 mm 0.00 in/hr0.0 mm/hr 0.00 in0.0 mm
05:30 AM 62.6°F17.0°C 28.2°F-2.1°C 27% 1.0 mph NE1.6 kmh NE 2.0 mph3.2 kmh 29.65 in1004.1 mb 0.00 in0.0 mm 0.00 in/hr0.0 mm/hr 0.00 in0.0 mm
05:25 AM 62.9°F17.2°C 27.5°F-2.5°C 26% 1.0 mph NE1.6 kmh NE 1.0 mph1.6 kmh 29.65 in1004.1 mb 0.00 in0.0 mm 0.00 in/hr0.0 mm/hr 0.00 in0.0 mm
05:20 AM 63.1°F17.3°C 27.7°F-2.4°C 26% Calm Calm -- 29.65 in1004.1 mb 0.00 in0.0 mm 0.00 in/hr0.0 mm/hr 0.00 in0.0 mm
05:15 AM 63.1°F17.3°C 26.7°F-2.9°C 25% 3.0 mph NE4.8 kmh NE 3.0 mph4.8 kmh 29.65 in1004.1 mb 0.00 in0.0 mm 0.00 in/hr0.0 mm/hr 0.00 in0.0 mm
05:10 AM 63.1°F17.3°C 26.7°F-2.9°C 25% Calm Calm -- 29.64 in1003.7 mb 0.00 in0.0 mm 0.00 in/hr0.0 mm/hr 0.00 in0.0 mm
05:05 AM 63.1°F17.3°C 27.7°F-2.4°C 26% 1.0 mph NE1.6 kmh NE 3.0 mph4.8 kmh 29.64 in1003.7 mb 0.00 in0.0 mm 0.00 in/hr0.0 mm/hr 0.00 in0.0 mm
05:00 AM 63.4°F17.4°C 27.9°F-2.3°C 26% 2.0 mph NE3.2 kmh NE 4.0 mph6.4 kmh 29.64 in1003.7 mb 0.00 in0.0 mm 0.00 in/hr0.0 mm/hr 0.00 in0.0 mm
04:55 AM 63.9°F17.7°C 28.3°F-2.1°C 26% 2.0 mph NE3.2 kmh NE 4.0 mph6.4 kmh 29.64 in1003.7 mb 0.00 in0.0 mm 0.00 in/hr0.0 mm/hr 0.00 in0.0 mm
04:50 AM 64.7°F18.2°C 28.1°F-2.2°C 25% Calm Calm 2.0 mph3.2 kmh 29.64 in1003.7 mb 0.00 in0.0 mm 0.00 in/hr0.0 mm/hr 0.00 in0.0 mm
04:45 AM 65.5°F18.6°C 28.7°F-1.8°C 25% 1.0 mph NE1.6 kmh NE 2.0 mph3.2 kmh 29.64 in1003.7 mb 0.00 in0.0 mm 0.00 in/hr0.0 mm/hr 0.00 in0.0 mm
04:40 AM 65.6°F18.7°C 26.8°F-2.9°C 23% Calm Calm 1.0 mph1.6 kmh 29.63 in1003.4 mb 0.00 in0.0 mm 0.00 in/hr0.0 mm/hr 0.00 in0.0 mm
04:35 AM 65.6°F18.7°C 26.8°F-2.9°C 23% 2.0 mph NE3.2 kmh NE 2.0 mph3.2 kmh 29.63 in1003.4 mb 0.00 in0.0 mm 0.00 in/hr0.0 mm/hr 0.00 in0.0 mm
04:30 AM 65.3°F18.5°C 27.6°F-2.4°C 24% 2.0 mph NE3.2 kmh NE 4.0 mph6.4 kmh 29.63 in1003.4 mb 0.00 in0.0 mm 0.00 in/hr0.0 mm/hr 0.00 in0.0 mm
04:25 AM 64.3°F17.9°C 27.7°F-2.4°C 25% 3.0 mph NE4.8 kmh NE 4.0 mph6.4 kmh 29.63 in1003.4 mb 0.00 in0.0 mm 0.00 in/hr0.0 mm/hr 0.00 in0.0 mm
04:20 AM 64.0°F17.8°C 28.4°F-2.0°C 26% 2.0 mph NE3.2 kmh NE 4.0 mph6.4 kmh 29.63 in1003.4 mb 0.00 in0.0 mm 0.00 in/hr0.0 mm/hr 0.00 in0.0 mm
04:15 AM 63.9°F17.7°C 28.3°F-2.1°C 26% 1.0 mph NE1.6 kmh NE 3.0 mph4.8 kmh 29.63 in1003.4 mb 0.00 in0.0 mm 0.00 in/hr0.0 mm/hr 0.00 in0.0 mm
04:10 AM 63.9°F17.7°C 28.3°F-2.1°C 26% 1.0 mph NE1.6 kmh NE 3.0 mph4.8 kmh 29.63 in1003.4 mb 0.00 in0.0 mm 0.00 in/hr0.0 mm/hr 0.00 in0.0 mm
04:05 AM 63.9°F17.7°C 28.3°F-2.1°C 26% Calm Calm -- 29.63 in1003.4 mb 0.00 in0.0 mm 0.00 in/hr0.0 mm/hr 0.00 in0.0 mm
04:00 AM 63.7°F17.6°C 29.1°F-1.6°C 27% 1.0 mph NE1.6 kmh NE 4.0 mph6.4 kmh 29.63 in1003.4 mb 0.00 in0.0 mm 0.00 in/hr0.0 mm/hr 0.00 in0.0 mm
03:55 AM 64.2°F17.9°C 28.6°F-1.9°C 26% 1.0 mph NE1.6 kmh NE 1.0 mph1.6 kmh 29.63 in1003.4 mb 0.00 in0.0 mm 0.00 in/hr0.0 mm/hr 0.00 in0.0 mm
03:50 AM 64.7°F18.2°C 29.9°F-1.2°C 27% Calm Calm -- 29.63 in1003.4 mb 0.00 in0.0 mm 0.00 in/hr0.0 mm/hr 0.00 in0.0 mm
03:45 AM 64.7°F18.2°C 29.0°F-1.7°C 26% 1.0 mph NE1.6 kmh NE 2.0 mph3.2 kmh 29.63 in1003.4 mb 0.00 in0.0 mm 0.00 in/hr0.0 mm/hr 0.00 in0.0 mm
03:40 AM 64.8°F18.2°C 28.2°F-2.1°C 25% 1.0 mph NE1.6 kmh NE 1.0 mph1.6 kmh 29.63 in1003.4 mb 0.00 in0.0 mm 0.00 in/hr0.0 mm/hr 0.00 in0.0 mm
03:35 AM 65.0°F18.3°C 28.3°F-2.1°C 25% Calm Calm 3.0 mph4.8 kmh 29.63 in1003.4 mb 0.00 in0.0 mm 0.00 in/hr0.0 mm/hr 0.00 in0.0 mm
03:30 AM 65.0°F18.3°C 27.3°F-2.6°C 24% 3.0 mph NE4.8 kmh NE 3.0 mph4.8 kmh 29.63 in1003.4 mb 0.00 in0.0 mm 0.00 in/hr0.0 mm/hr 0.00 in0.0 mm
03:25 AM 65.2°F18.4°C 28.5°F-1.9°C 25% Calm Calm 1.0 mph1.6 kmh 29.63 in1003.4 mb 0.00 in0.0 mm 0.00 in/hr0.0 mm/hr 0.00 in0.0 mm
03:20 AM 65.0°F18.3°C 28.3°F-2.1°C 25% 2.0 mph NE3.2 kmh NE 3.0 mph4.8 kmh 29.63 in1003.4 mb 0.00 in0.0 mm 0.00 in/hr0.0 mm/hr 0.00 in0.0 mm
03:15 AM 64.7°F18.2°C 28.1°F-2.2°C 25% 2.0 mph NE3.2 kmh NE 3.0 mph4.8 kmh 29.63 in1003.4 mb 0.00 in0.0 mm 0.00 in/hr0.0 mm/hr 0.00 in0.0 mm
03:10 AM 64.7°F18.2°C 28.1°F-2.2°C 25% Calm Calm -- 29.63 in1003.4 mb 0.00 in0.0 mm 0.00 in/hr0.0 mm/hr 0.00 in0.0 mm
03:05 AM 64.5°F18.1°C 28.9°F-1.7°C 26% Calm Calm -- 29.63 in1003.4 mb 0.00 in0.0 mm 0.00 in/hr0.0 mm/hr 0.00 in0.0 mm
03:00 AM 64.5°F18.1°C 29.8°F-1.2°C 27% Calm Calm 3.0 mph4.8 kmh 29.63 in1003.4 mb 0.00 in0.0 mm 0.00 in/hr0.0 mm/hr 0.00 in0.0 mm
02:55 AM 64.3°F17.9°C 29.6°F-1.3°C 27% 2.0 mph NE3.2 kmh NE 3.0 mph4.8 kmh 29.63 in1003.4 mb 0.00 in0.0 mm 0.00 in/hr0.0 mm/hr 0.00 in0.0 mm
02:50 AM 64.3°F17.9°C 29.6°F-1.3°C 27% 1.0 mph NE1.6 kmh NE 1.0 mph1.6 kmh 29.63 in1003.4 mb 0.00 in0.0 mm 0.00 in/hr0.0 mm/hr 0.00 in0.0 mm
02:45 AM 64.5°F18.1°C 28.9°F-1.7°C 26% Calm Calm -- 29.63 in1003.4 mb 0.00 in0.0 mm 0.00 in/hr0.0 mm/hr 0.00 in0.0 mm
02:40 AM 64.5°F18.1°C 28.9°F-1.7°C 26% 1.0 mph NE1.6 kmh NE 3.0 mph4.8 kmh 29.63 in1003.4 mb 0.00 in0.0 mm 0.00 in/hr0.0 mm/hr 0.00 in0.0 mm
02:35 AM 64.3°F17.9°C 29.6°F-1.3°C 27% 1.0 mph NE1.6 kmh NE 3.0 mph4.8 kmh 29.63 in1003.4 mb 0.00 in0.0 mm 0.00 in/hr0.0 mm/hr 0.00 in0.0 mm
02:30 AM 64.2°F17.9°C 29.5°F-1.4°C 27% 1.0 mph NE1.6 kmh NE 3.0 mph4.8 kmh 29.63 in1003.4 mb 0.00 in0.0 mm 0.00 in/hr0.0 mm/hr 0.00 in0.0 mm
02:25 AM 64.2°F17.9°C 30.4°F-0.9°C 28% 2.0 mph NE3.2 kmh NE 2.0 mph3.2 kmh 29.63 in1003.4 mb 0.00 in0.0 mm 0.00 in/hr0.0 mm/hr 0.00 in0.0 mm
02:20 AM 64.3°F17.9°C 31.4°F-0.3°C 29% Calm Calm -- 29.63 in1003.4 mb 0.00 in0.0 mm 0.00 in/hr0.0 mm/hr 0.00 in0.0 mm
02:15 AM 64.3°F17.9°C 32.2°F0.1°C 30% 1.0 mph NE1.6 kmh NE 2.0 mph3.2 kmh 29.63 in1003.4 mb 0.00 in0.0 mm 0.00 in/hr0.0 mm/hr 0.00 in0.0 mm
02:10 AM 64.5°F18.1°C 33.2°F0.7°C 31% 1.0 mph NE1.6 kmh NE 3.0 mph4.8 kmh 29.63 in1003.4 mb 0.00 in0.0 mm 0.00 in/hr0.0 mm/hr 0.00 in0.0 mm
02:05 AM 65.0°F18.3°C 34.4°F1.3°C 32% Calm Calm -- 29.63 in1003.4 mb 0.00 in0.0 mm 0.00 in/hr0.0 mm/hr 0.00 in0.0 mm
02:00 AM 65.3°F18.5°C 33.9°F1.1°C 31% 1.0 mph NE1.6 kmh NE 2.0 mph3.2 kmh 29.63 in1003.4 mb 0.00 in0.0 mm 0.00 in/hr0.0 mm/hr 0.00 in0.0 mm
01:55 AM 65.6°F18.7°C 33.3°F0.7°C 30% Calm Calm 1.0 mph1.6 kmh 29.63 in1003.4 mb 0.00 in0.0 mm 0.00 in/hr0.0 mm/hr 0.00 in0.0 mm
01:50 AM 66.0°F18.9°C 32.0°F0.0°C 28% Calm Calm -- 29.63 in1003.4 mb 0.00 in0.0 mm 0.00 in/hr0.0 mm/hr 0.00 in0.0 mm
01:45 AM 66.4°F19.1°C 32.3°F0.2°C 28% Calm Calm 1.0 mph1.6 kmh 29.63 in1003.4 mb 0.00 in0.0 mm 0.00 in/hr0.0 mm/hr 0.00 in0.0 mm
01:40 AM 66.8°F19.3°C 32.6°F0.3°C 28% Calm Calm 1.0 mph1.6 kmh 29.64 in1003.7 mb 0.00 in0.0 mm 0.00 in/hr0.0 mm/hr 0.00 in0.0 mm
01:35 AM 67.1°F19.5°C 32.0°F0.0°C 27% Calm Calm -- 29.64 in1003.7 mb 0.00 in0.0 mm 0.00 in/hr0.0 mm/hr 0.00 in0.0 mm
01:30 AM 66.9°F19.4°C 31.8°F-0.1°C 27% 2.0 mph NE3.2 kmh NE 4.0 mph6.4 kmh 29.64 in1003.7 mb 0.00 in0.0 mm 0.00 in/hr0.0 mm/hr 0.00 in0.0 mm
01:25 AM 66.8°F19.3°C 32.6°F0.3°C 28% 3.0 mph NE4.8 kmh NE 4.0 mph6.4 kmh 29.64 in1003.7 mb 0.00 in0.0 mm 0.00 in/hr0.0 mm/hr 0.00 in0.0 mm
01:20 AM 66.4°F19.1°C 32.3°F0.2°C 28% 2.0 mph ENE3.2 kmh ENE 3.0 mph4.8 kmh 29.64 in1003.7 mb 0.00 in0.0 mm 0.00 in/hr0.0 mm/hr 0.00 in0.0 mm
01:15 AM 66.1°F18.9°C 32.9°F0.5°C 29% 1.0 mph ENE1.6 kmh ENE 3.0 mph4.8 kmh 29.64 in1003.7 mb 0.00 in0.0 mm 0.00 in/hr0.0 mm/hr 0.00 in0.0 mm
01:10 AM 66.1°F18.9°C 33.8°F1.0°C 30% Calm Calm 3.0 mph4.8 kmh 29.64 in1003.7 mb 0.00 in0.0 mm 0.00 in/hr0.0 mm/hr 0.00 in0.0 mm
01:05 AM 66.0°F18.9°C 36.8°F2.7°C 34% 2.0 mph ENE3.2 kmh ENE 3.0 mph4.8 kmh 29.64 in1003.7 mb 0.00 in0.0 mm 0.00 in/hr0.0 mm/hr 0.00 in0.0 mm
01:00 AM 66.1°F18.9°C 37.6°F3.1°C 35% 2.0 mph ENE3.2 kmh ENE 2.0 mph3.2 kmh 29.64 in1003.7 mb 0.00 in0.0 mm 0.00 in/hr0.0 mm/hr 0.00 in0.0 mm
12:55 AM 66.4°F19.1°C 37.2°F2.9°C 34% 1.0 mph ENE1.6 kmh ENE 1.0 mph1.6 kmh 29.64 in1003.7 mb 0.00 in0.0 mm 0.00 in/hr0.0 mm/hr 0.00 in0.0 mm
12:50 AM 66.6°F19.2°C 36.6°F2.6°C 33% Calm Calm -- 29.64 in1003.7 mb 0.00 in0.0 mm 0.00 in/hr0.0 mm/hr 0.00 in0.0 mm
12:45 AM 66.8°F19.3°C 36.0°F2.2°C 32% Calm Calm -- 29.64 in1003.7 mb 0.00 in0.0 mm 0.00 in/hr0.0 mm/hr 0.00 in0.0 mm
12:40 AM 66.9°F19.4°C 36.1°F2.3°C 32% Calm Calm -- 29.64 in1003.7 mb 0.00 in0.0 mm 0.00 in/hr0.0 mm/hr 0.00 in0.0 mm
12:35 AM 66.9°F19.4°C 36.1°F2.3°C 32% Calm Calm -- 29.64 in1003.7 mb 0.00 in0.0 mm 0.00 in/hr0.0 mm/hr 0.00 in0.0 mm
12:30 AM 66.9°F19.4°C 36.1°F2.3°C 32% Calm Calm -- 29.64 in1003.7 mb 0.00 in0.0 mm 0.00 in/hr0.0 mm/hr 0.00 in0.0 mm
12:25 AM 66.9°F19.4°C 37.6°F3.1°C 34% Calm Calm -- 29.64 in1003.7 mb 0.00 in0.0 mm 0.00 in/hr0.0 mm/hr 0.00 in0.0 mm
12:20 AM 66.9°F19.4°C 39.1°F3.9°C 36% 1.0 mph ENE1.6 kmh ENE 2.0 mph3.2 kmh 29.64 in1003.7 mb 0.00 in0.0 mm 0.00 in/hr0.0 mm/hr 0.00 in0.0 mm
12:15 AM 66.9°F19.4°C 39.1°F3.9°C 36% 2.0 mph ENE3.2 kmh ENE 2.0 mph3.2 kmh 29.64 in1003.7 mb 0.00 in0.0 mm 0.00 in/hr0.0 mm/hr 0.00 in0.0 mm
12:10 AM 66.9°F19.4°C 38.4°F3.6°C 35% Calm Calm -- 29.64 in1003.7 mb 0.00 in0.0 mm 0.00 in/hr0.0 mm/hr 0.00 in0.0 mm
12:05 AM 66.9°F19.4°C 38.4°F3.6°C 35% 1.0 mph ENE1.6 kmh ENE 2.0 mph3.2 kmh 29.64 in1003.7 mb 0.00 in0.0 mm 0.00 in/hr0.0 mm/hr 0.00 in0.0 mm
12:00 AM 67.1°F19.5°C 37.8°F3.2°C 34% 1.0 mph ENE1.6 kmh ENE 2.0 mph3.2 kmh 29.64 in1003.7 mb 0.00 in0.0 mm 0.00 in/hr0.0 mm/hr 0.00 in0.0 mm